createdAt,value
2018-10-21T00:01:13.620Z,100764.00
2018-10-21T00:03:41.745Z,100767.00
2018-10-21T00:06:10.183Z,100769.00
2018-10-21T00:08:38.344Z,100769.00
2018-10-21T00:11:06.510Z,100769.00
2018-10-21T00:13:34.721Z,100775.00
2018-10-21T00:16:02.907Z,100778.00
2018-10-21T00:18:31.172Z,100773.00
2018-10-21T00:20:59.940Z,100779.00
2018-10-21T00:23:28.038Z,100778.00
2018-10-21T00:25:56.261Z,100773.00
2018-10-21T00:28:24.409Z,100776.00
2018-10-21T00:30:52.603Z,100766.00
2018-10-21T00:33:20.693Z,100771.00
2018-10-21T00:35:48.870Z,100774.00
2018-10-21T00:38:17.038Z,100775.00
2018-10-21T00:40:45.211Z,100772.00
2018-10-21T00:43:13.370Z,100773.00
2018-10-21T00:57:28.292Z,100773.00
2018-10-21T01:00:05.094Z,100771.00
2018-10-21T01:02:33.959Z,100771.00
2018-10-21T01:05:02.097Z,100776.00
2018-10-21T01:07:44.110Z,100770.00
2018-10-21T01:10:12.218Z,100773.00
2018-10-21T01:12:40.945Z,100767.00
2018-10-21T01:15:10.689Z,100762.00
2018-10-21T01:17:39.486Z,100769.00
2018-10-21T01:20:10.444Z,100758.00
2018-10-21T01:22:39.125Z,100760.00
2018-10-21T01:25:08.123Z,100762.00
2018-10-21T01:27:36.607Z,100761.00
2018-10-21T01:30:06.445Z,100759.00
2018-10-21T01:32:34.589Z,100765.00
2018-10-21T01:35:02.731Z,100768.00
2018-10-21T01:37:30.919Z,100764.00
2018-10-21T01:41:02.227Z,100762.00
2018-10-21T01:43:31.510Z,100758.00
2018-10-21T01:46:00.372Z,100756.00
2018-10-21T01:48:29.725Z,100757.00
2018-10-21T01:50:58.064Z,100757.00
2018-10-21T01:53:26.340Z,100763.00
2018-10-21T01:55:54.551Z,100766.00
2018-10-21T01:58:22.638Z,100767.00
2018-10-21T02:00:50.825Z,100769.00
2018-10-21T02:03:19.112Z,100771.00
2018-10-21T02:05:47.643Z,100776.00
2018-10-21T02:08:15.833Z,100769.00
2018-10-21T02:10:44.702Z,100768.00
2018-10-21T02:13:12.862Z,100769.00
2018-10-21T02:15:41.662Z,100769.00
2018-10-21T02:18:09.805Z,100771.00
2018-10-21T02:20:38.022Z,100772.00
2018-10-21T02:23:06.253Z,100776.00
2018-10-21T02:25:34.470Z,100780.00
2018-10-21T02:28:02.652Z,100788.00
2018-10-21T02:30:31.228Z,100792.00
2018-10-21T02:33:00.096Z,100791.00
2018-10-21T02:35:28.228Z,100787.00
2018-10-21T02:37:57.099Z,100783.00
2018-10-21T02:41:42.285Z,100786.00
2018-10-21T02:44:11.903Z,100791.00
2018-10-21T02:46:40.902Z,100793.00
2018-10-21T02:49:09.862Z,100788.00
2018-10-21T02:51:38.052Z,100793.00
2018-10-21T02:54:06.948Z,100798.00
2018-10-21T02:56:36.370Z,100789.00
2018-10-21T02:59:05.684Z,100791.00
2018-10-21T03:01:33.863Z,100797.00
2018-10-21T03:04:02.057Z,100797.00
2018-10-21T03:06:30.315Z,100790.00
2018-10-21T03:08:58.554Z,100781.00
2018-10-21T03:11:26.711Z,100782.00
2018-10-21T03:13:54.919Z,100778.00
2018-10-21T03:16:23.102Z,100771.00
2018-10-21T03:18:51.351Z,100766.00
2018-10-21T03:21:19.645Z,100769.00
2018-10-21T03:23:47.787Z,100761.00
2018-10-21T03:26:15.949Z,100755.00
2018-10-21T03:28:44.153Z,100752.00
2018-10-21T03:31:12.261Z,100752.00
2018-10-21T03:33:40.500Z,100757.00
2018-10-21T03:36:08.671Z,100756.00
2018-10-21T03:38:36.892Z,100757.00
2018-10-21T03:41:05.200Z,100757.00
2018-10-21T03:43:33.326Z,100760.00
2018-10-21T03:46:01.479Z,100761.00
2018-10-21T03:48:29.768Z,100763.00
2018-10-21T03:50:57.971Z,100763.00
2018-10-21T03:53:26.806Z,100763.00
2018-10-21T03:55:54.947Z,100760.00
2018-10-21T03:58:23.146Z,100761.00
2018-10-21T04:00:51.385Z,100756.00
2018-10-21T04:03:19.560Z,100758.00
2018-10-21T04:05:47.721Z,100760.00
2018-10-21T04:08:16.387Z,100752.00
2018-10-21T04:10:44.547Z,100754.00
2018-10-21T04:13:12.610Z,100755.00
2018-10-21T04:15:40.796Z,100760.00
2018-10-21T04:18:08.971Z,100753.00
2018-10-21T04:20:37.189Z,100746.00
2018-10-21T04:23:05.504Z,100736.00
2018-10-21T04:25:34.712Z,100739.00
2018-10-21T04:28:03.598Z,100735.00
2018-10-21T04:30:34.524Z,100734.00
2018-10-21T04:33:07.792Z,100729.00
2018-10-21T04:35:35.972Z,100725.00
2018-10-21T04:38:34.862Z,100722.00
2018-10-21T04:41:03.172Z,100730.00
2018-10-21T04:43:31.281Z,100723.00
2018-10-21T04:45:59.399Z,100725.00
2018-10-21T04:48:27.579Z,100718.00
2018-10-21T04:50:55.834Z,100725.00
2018-10-21T04:53:24.011Z,100722.00
2018-10-21T04:55:52.335Z,100716.00
2018-10-21T04:58:20.543Z,100718.00
2018-10-21T05:00:48.756Z,100717.00
2018-10-21T05:03:16.883Z,100718.00
2018-10-21T05:05:45.054Z,100717.00
2018-10-21T05:08:13.204Z,100722.00
2018-10-21T05:10:41.455Z,100717.00
2018-10-21T05:13:10.207Z,100719.00
2018-10-21T05:15:39.548Z,100719.00
2018-10-21T05:18:07.807Z,100726.00
2018-10-21T05:20:35.974Z,100725.00
2018-10-21T05:23:04.197Z,100731.00
2018-10-21T05:25:33.160Z,100728.00
2018-10-21T05:28:01.401Z,100731.00
2018-10-21T05:30:29.546Z,100728.00
2018-10-21T05:32:57.726Z,100730.00
2018-10-21T05:35:25.957Z,100730.00
2018-10-21T05:37:54.216Z,100728.00
2018-10-21T05:40:22.858Z,100732.00
2018-10-21T05:42:52.292Z,100737.00
2018-10-21T05:45:20.471Z,100744.00
2018-10-21T05:47:49.743Z,100747.00
2018-10-21T05:50:17.847Z,100751.00
2018-10-21T05:52:46.016Z,100751.00
2018-10-21T05:55:14.748Z,100755.00
2018-10-21T05:57:43.001Z,100756.00
2018-10-21T06:00:14.058Z,100754.00
2018-10-21T06:02:42.366Z,100758.00
2018-10-21T06:05:46.045Z,100760.00
2018-10-21T06:08:19.304Z,100764.00
2018-10-21T06:10:48.410Z,100762.00
2018-10-21T06:13:17.849Z,100764.00
2018-10-21T06:15:46.142Z,100771.00
2018-10-21T06:18:19.756Z,100773.00
2018-10-21T06:20:50.530Z,100767.00
2018-10-21T06:23:18.658Z,100775.00
2018-10-21T06:25:46.903Z,100782.00
2018-10-21T06:28:15.091Z,100779.00
2018-10-21T06:30:44.717Z,100776.00
2018-10-21T06:33:12.957Z,100790.00
2018-10-21T06:35:41.109Z,100793.00
2018-10-21T06:38:09.296Z,100799.00
2018-10-21T06:40:37.454Z,100800.00
2018-10-21T06:43:05.855Z,100800.00
2018-10-21T06:45:34.083Z,100810.00
2018-10-21T06:48:02.254Z,100808.00
2018-10-21T06:50:30.428Z,100813.00
2018-10-21T06:52:58.581Z,100812.00
2018-10-21T06:55:26.794Z,100808.00
2018-10-21T06:57:54.902Z,100809.00
2018-10-21T07:00:23.025Z,100813.00
2018-10-21T07:02:51.114Z,100810.00
2018-10-21T07:05:36.318Z,100817.00
2018-10-21T07:08:04.746Z,100826.00
2018-10-21T07:10:32.925Z,100829.00
2018-10-21T07:13:02.323Z,100816.00
2018-10-21T07:15:30.499Z,100807.00
2018-10-21T07:17:59.260Z,100803.00
2018-10-21T07:20:27.366Z,100805.00
2018-10-21T07:22:55.587Z,100800.00
2018-10-21T07:25:23.754Z,100794.00
2018-10-21T07:27:53.028Z,100796.00
2018-10-21T07:30:21.173Z,100794.00
2018-10-21T07:32:49.371Z,100796.00
2018-10-21T07:35:17.530Z,100790.00
2018-10-21T07:37:45.688Z,100790.00
2018-10-21T07:40:13.937Z,100790.00
2018-10-21T07:42:42.220Z,100790.00
2018-10-21T07:45:10.404Z,100788.00
2018-10-21T07:47:38.578Z,100776.00
2018-10-21T07:50:06.849Z,100770.00
2018-10-21T07:52:36.063Z,100769.00
2018-10-21T07:55:04.453Z,100771.00
2018-10-21T07:57:32.613Z,100769.00
2018-10-21T08:00:00.808Z,100775.00
2018-10-21T08:02:29.038Z,100768.00
2018-10-21T08:04:57.159Z,100759.00
2018-10-21T08:07:42.324Z,100765.00
2018-10-21T08:10:10.544Z,100766.00
2018-10-21T08:12:38.798Z,100772.00
2018-10-21T08:15:07.035Z,100766.00
2018-10-21T08:17:35.215Z,100771.00
2018-10-21T08:20:03.462Z,100775.00
2018-10-21T08:22:32.167Z,100771.00
2018-10-21T08:25:00.397Z,100771.00
2018-10-21T08:27:28.660Z,100772.00
2018-10-21T08:29:56.879Z,100780.00
2018-10-21T08:32:25.074Z,100779.00
2018-10-21T08:34:53.245Z,100777.00
2018-10-21T08:37:21.374Z,100781.00
2018-10-21T08:39:49.561Z,100777.00
2018-10-21T08:42:17.667Z,100781.00
2018-10-21T08:44:45.759Z,100779.00
2018-10-21T08:47:13.935Z,100781.00
2018-10-21T08:49:42.098Z,100781.00
2018-10-21T08:52:11.073Z,100781.00
2018-10-21T08:54:39.241Z,100779.00
2018-10-21T08:57:07.514Z,100775.00
2018-10-21T08:59:35.714Z,100772.00
2018-10-21T09:02:04.000Z,100776.00
2018-10-21T09:04:32.092Z,100774.00
2018-10-21T09:07:00.394Z,100773.00
2018-10-21T09:09:28.521Z,100772.00
2018-10-21T09:11:56.685Z,100769.00
2018-10-21T09:14:24.907Z,100768.00
2018-10-21T09:16:53.134Z,100763.00
2018-10-21T09:19:21.304Z,100765.00
2018-10-21T09:21:49.455Z,100765.00
2018-10-21T09:24:17.747Z,100761.00
2018-10-21T09:26:45.925Z,100764.00
2018-10-21T09:29:15.105Z,100762.00
2018-10-21T09:31:43.292Z,100763.00
2018-10-21T09:34:11.561Z,100770.00
2018-10-21T09:36:39.717Z,100767.00
2018-10-21T09:39:11.564Z,100769.00
2018-10-21T09:41:39.815Z,100762.00
2018-10-21T09:44:08.812Z,100762.00
2018-10-21T09:46:37.081Z,100756.00
2018-10-21T09:49:05.888Z,100759.00
2018-10-21T09:51:34.403Z,100756.00
2018-10-21T09:54:02.608Z,100749.00
2018-10-21T09:56:30.843Z,100750.00
2018-10-21T09:58:59.090Z,100738.00
2018-10-21T10:01:32.739Z,100737.00
2018-10-21T10:04:01.059Z,100740.00
2018-10-21T10:06:29.124Z,100740.00
2018-10-21T10:08:57.364Z,100736.00
2018-10-21T10:11:25.507Z,100727.00
2018-10-21T10:13:53.725Z,100723.00
2018-10-21T10:16:21.940Z,100720.00
2018-10-21T10:18:50.112Z,100719.00
2018-10-21T10:21:18.267Z,100716.00
2018-10-21T10:23:46.520Z,100715.00
2018-10-21T10:26:14.645Z,100707.00
2018-10-21T10:28:42.880Z,100702.00
2018-10-21T10:31:11.050Z,100698.00
2018-10-21T10:33:39.275Z,100692.00
2018-10-21T10:36:07.472Z,100688.00
2018-10-21T10:38:35.590Z,100678.00
2018-10-21T10:41:03.767Z,100676.00
2018-10-21T10:43:31.969Z,100677.00
2018-10-21T10:46:00.070Z,100668.00
2018-10-21T10:48:28.273Z,100657.00
2018-10-21T10:50:56.428Z,100643.00
2018-10-21T10:53:24.581Z,100645.00
2018-10-21T10:55:52.838Z,100642.00
2018-10-21T10:58:20.988Z,100640.00
2018-10-21T11:00:49.164Z,100635.00
2018-10-21T11:03:17.397Z,100615.00
2018-10-21T11:05:45.531Z,100607.00
2018-10-21T11:08:15.241Z,100606.00
2018-10-21T11:10:43.596Z,100603.00
2018-10-21T11:13:11.835Z,100594.00
2018-10-21T11:15:40.032Z,100586.00
2018-10-21T11:18:09.310Z,100576.00
2018-10-21T11:20:37.490Z,100574.00
2018-10-21T11:23:06.088Z,100573.00
2018-10-21T11:25:34.271Z,100568.00
2018-10-21T11:28:02.534Z,100568.00
2018-10-21T11:30:31.214Z,100565.00
2018-10-21T11:32:59.418Z,100569.00
2018-10-21T11:35:27.545Z,100572.00
2018-10-21T11:37:55.760Z,100569.00
2018-10-21T11:40:24.016Z,100568.00
2018-10-21T11:42:52.258Z,100560.00
2018-10-21T11:45:20.408Z,100561.00
2018-10-21T11:47:48.657Z,100569.00
2018-10-21T11:50:16.855Z,100556.00
2018-10-21T11:52:45.169Z,100558.00
2018-10-21T11:55:13.350Z,100546.00
2018-10-21T11:57:41.517Z,100548.00
2018-10-21T12:00:10.195Z,100550.00
2018-10-21T12:02:38.418Z,100544.00
2018-10-21T12:05:07.277Z,100550.00
2018-10-21T12:07:35.469Z,100563.00
2018-10-21T12:10:05.275Z,100553.00
2018-10-21T12:12:33.425Z,100548.00
2018-10-21T12:15:01.605Z,100556.00
2018-10-21T12:17:29.816Z,100554.00
2018-10-21T12:19:58.075Z,100551.00
2018-10-21T12:22:26.224Z,100552.00
2018-10-21T12:24:55.259Z,100540.00
2018-10-21T12:27:23.695Z,100540.00
2018-10-21T12:29:51.942Z,100534.00
2018-10-21T12:32:20.235Z,100539.00
2018-10-21T12:34:49.260Z,100542.00
2018-10-21T12:37:17.561Z,100533.00
2018-10-21T12:39:45.751Z,100528.00
2018-10-21T12:42:13.921Z,100526.00
2018-10-21T12:44:42.366Z,100514.00
2018-10-21T12:47:10.632Z,100513.00
2018-10-21T12:49:38.800Z,100504.00
2018-10-21T12:52:06.996Z,100504.00
2018-10-21T12:54:36.742Z,100500.00
2018-10-21T12:57:05.374Z,100498.00
2018-10-21T12:59:33.516Z,100496.00
2018-10-21T13:02:01.685Z,100496.00
2018-10-21T13:04:29.938Z,100492.00
2018-10-21T13:06:58.124Z,100487.00
2018-10-21T13:09:27.107Z,100486.00
2018-10-21T13:11:56.485Z,100481.00
2018-10-21T13:14:24.729Z,100484.00
2018-10-21T13:16:52.957Z,100482.00
2018-10-21T13:19:21.095Z,100479.00
2018-10-21T13:21:49.331Z,100472.00
2018-10-21T13:24:17.471Z,100467.00
2018-10-21T13:26:45.716Z,100473.00
2018-10-21T13:29:13.920Z,100467.00
2018-10-21T13:31:42.206Z,100468.00
2018-10-21T13:34:10.480Z,100461.00
2018-10-21T13:36:38.648Z,100464.00
2018-10-21T13:39:11.229Z,100464.00
2018-10-21T13:41:39.518Z,100459.00
2018-10-21T13:44:07.714Z,100462.00
2018-10-21T13:46:35.905Z,100458.00
2018-10-21T13:49:04.468Z,100462.00
2018-10-21T13:51:32.631Z,100452.00
2018-10-21T13:54:00.934Z,100447.00
2018-10-21T13:56:29.278Z,100448.00
2018-10-21T13:58:57.575Z,100445.00
2018-10-21T14:01:25.894Z,100448.00
2018-10-21T14:03:54.039Z,100445.00
2018-10-21T14:06:22.271Z,100447.00
2018-10-21T14:08:50.617Z,100447.00
2018-10-21T14:11:19.677Z,100443.00
2018-10-21T14:13:47.905Z,100440.00
2018-10-21T14:16:16.363Z,100436.00
2018-10-21T14:18:44.685Z,100434.00
2018-10-21T14:21:12.775Z,100438.00
2018-10-21T14:23:40.923Z,100436.00
2018-10-21T14:26:09.122Z,100432.00
2018-10-21T14:28:37.994Z,100435.00
2018-10-21T14:31:06.234Z,100436.00
2018-10-21T14:33:34.640Z,100434.00
2018-10-21T14:36:02.846Z,100435.00
2018-10-21T14:38:36.374Z,100432.00
2018-10-21T14:41:04.614Z,100433.00
2018-10-21T14:43:32.813Z,100425.00
2018-10-21T14:46:01.211Z,100428.00
2018-10-21T14:48:29.235Z,100422.00
2018-10-21T14:50:57.424Z,100423.00
2018-10-21T14:53:25.617Z,100422.00
2018-10-21T14:55:53.913Z,100420.00
2018-10-21T14:58:22.134Z,100421.00
2018-10-21T15:00:51.025Z,100420.00
2018-10-21T15:03:19.215Z,100419.00
2018-10-21T15:05:47.320Z,100431.00
2018-10-21T15:08:28.898Z,100429.00
2018-10-21T15:10:57.030Z,100427.00
2018-10-21T15:13:27.954Z,100426.00
2018-10-21T15:15:56.058Z,100430.00
2018-10-21T15:18:37.342Z,100430.00
2018-10-21T15:21:05.626Z,100426.00
2018-10-21T15:23:33.821Z,100441.00
2018-10-21T15:26:02.089Z,100436.00
2018-10-21T15:28:30.330Z,100441.00
2018-10-21T15:30:58.497Z,100442.00
2018-10-21T15:33:26.623Z,100437.00
2018-10-21T15:35:54.875Z,100438.00
2018-10-21T15:38:23.168Z,100434.00
2018-10-21T15:40:51.391Z,100434.00
2018-10-21T15:43:19.574Z,100436.00
2018-10-21T15:45:47.806Z,100430.00
2018-10-21T15:48:15.931Z,100437.00
2018-10-21T15:50:44.130Z,100437.00
2018-10-21T15:53:12.405Z,100435.00
2018-10-21T15:55:40.772Z,100436.00
2018-10-21T15:58:14.245Z,100442.00
2018-10-21T16:00:42.383Z,100442.00
2018-10-21T16:03:10.532Z,100443.00
2018-10-21T16:05:38.635Z,100444.00
2018-10-21T16:08:06.808Z,100440.00
2018-10-21T16:10:35.110Z,100438.00
2018-10-21T16:13:04.592Z,100417.00
2018-10-21T16:15:33.551Z,100439.00
2018-10-21T16:18:01.734Z,100446.00
2018-10-21T16:20:29.983Z,100453.00
2018-10-21T16:22:58.177Z,100452.00
2018-10-21T16:25:26.422Z,100455.00
2018-10-21T16:27:55.529Z,100452.00
2018-10-21T16:30:23.652Z,100455.00
2018-10-21T16:32:51.962Z,100456.00
2018-10-21T16:35:20.136Z,100455.00
2018-10-21T16:37:48.322Z,100452.00
2018-10-21T16:40:16.740Z,100454.00
2018-10-21T16:42:44.948Z,100455.00
2018-10-21T16:45:13.859Z,100455.00
2018-10-21T16:47:42.189Z,100456.00
2018-10-21T16:50:12.947Z,100464.00
2018-10-21T16:52:42.086Z,100464.00
2018-10-21T16:55:10.851Z,100467.00
2018-10-21T16:57:39.170Z,100472.00
2018-10-21T17:00:12.065Z,100471.00
2018-10-21T17:02:40.395Z,100470.00
2018-10-21T17:05:08.832Z,100473.00
2018-10-21T17:07:36.970Z,100473.00
2018-10-21T17:10:05.994Z,100472.00
2018-10-21T17:12:33.998Z,100469.00
2018-10-21T17:15:02.321Z,100468.00
2018-10-21T17:17:30.563Z,100473.00
2018-10-21T17:19:58.784Z,100470.00
2018-10-21T17:22:27.018Z,100475.00
2018-10-21T17:24:55.277Z,100460.00
2018-10-21T17:27:23.864Z,100474.00
2018-10-21T17:29:52.059Z,100472.00
2018-10-21T17:32:20.378Z,100480.00
2018-10-21T17:34:48.610Z,100485.00
2018-10-21T17:37:16.841Z,100492.00
2018-10-21T17:39:45.063Z,100488.00
2018-10-21T17:42:13.233Z,100490.00
2018-10-21T17:44:41.409Z,100489.00
2018-10-21T17:47:09.685Z,100499.00
2018-10-21T17:49:37.895Z,100493.00
2018-10-21T17:52:06.331Z,100493.00
2018-10-21T17:54:34.617Z,100493.00
2018-10-21T17:57:03.020Z,100488.00
2018-10-21T17:59:31.227Z,100488.00
2018-10-21T18:01:59.594Z,100491.00
2018-10-21T18:04:29.178Z,100501.00
2018-10-21T18:06:57.353Z,100501.00
2018-10-21T18:09:25.507Z,100492.00
2018-10-21T18:11:53.803Z,100494.00
2018-10-21T18:14:22.632Z,100499.00
2018-10-21T18:16:50.779Z,100500.00
2018-10-21T18:19:18.965Z,100498.00
2018-10-21T18:21:47.231Z,100501.00
2018-10-21T18:24:15.312Z,100500.00
2018-10-21T18:26:43.582Z,100502.00
2018-10-21T18:29:11.828Z,100501.00
2018-10-21T18:31:40.023Z,100495.00
2018-10-21T18:34:08.173Z,100497.00
2018-10-21T18:36:36.475Z,100494.00
2018-10-21T18:39:07.917Z,100499.00
2018-10-21T18:41:36.127Z,100506.00
2018-10-21T18:44:04.928Z,100507.00
2018-10-21T18:46:33.097Z,100506.00
2018-10-21T18:49:01.332Z,100506.00
2018-10-21T18:51:29.645Z,100506.00
2018-10-21T18:53:57.886Z,100508.00
2018-10-21T18:56:26.152Z,100514.00
2018-10-21T18:58:54.459Z,100514.00
2018-10-21T19:01:22.728Z,100519.00
2018-10-21T19:03:50.963Z,100515.00
2018-10-21T19:06:19.313Z,100516.00
2018-10-21T19:08:47.672Z,100509.00
2018-10-21T19:11:16.229Z,100512.00
2018-10-21T19:13:44.460Z,100509.00
2018-10-21T19:16:12.800Z,100508.00
2018-10-21T19:18:41.111Z,100509.00
2018-10-21T19:21:09.459Z,100515.00
2018-10-21T19:23:37.649Z,100512.00
2018-10-21T19:26:06.017Z,100513.00
2018-10-21T19:28:34.457Z,100515.00
2018-10-21T19:31:02.671Z,100516.00
2018-10-21T19:33:30.767Z,100518.00
2018-10-21T19:35:58.985Z,100518.00
2018-10-21T19:38:32.828Z,100519.00
2018-10-21T19:41:01.119Z,100528.00
2018-10-21T19:43:29.375Z,100524.00
2018-10-21T19:45:57.631Z,100528.00
2018-10-21T19:48:25.857Z,100527.00
2018-10-21T19:50:54.101Z,100530.00
2018-10-21T19:53:22.284Z,100528.00
2018-10-21T19:55:50.559Z,100531.00
2018-10-21T19:58:18.737Z,100527.00
2018-10-21T20:00:46.944Z,100530.00
2018-10-21T20:03:15.111Z,100525.00
2018-10-21T20:05:43.343Z,100528.00
2018-10-21T20:08:11.580Z,100530.00
2018-10-21T20:10:39.722Z,100536.00
2018-10-21T20:13:07.903Z,100539.00
2018-10-21T20:15:36.088Z,100537.00
2018-10-21T20:18:04.512Z,100539.00
2018-10-21T20:20:32.764Z,100533.00
2018-10-21T20:23:00.939Z,100534.00
2018-10-21T20:25:29.059Z,100530.00
2018-10-21T20:27:57.359Z,100522.00
2018-10-21T20:30:25.526Z,100523.00
2018-10-21T20:32:53.812Z,100529.00
2018-10-21T20:35:21.867Z,100532.00
2018-10-21T20:37:50.099Z,100535.00
2018-10-21T20:40:18.232Z,100539.00
2018-10-21T20:42:46.392Z,100544.00
2018-10-21T20:45:14.571Z,100543.00
2018-10-21T20:47:42.666Z,100548.00
2018-10-21T20:50:10.854Z,100549.00
2018-10-21T20:52:39.816Z,100543.00
2018-10-21T20:55:08.067Z,100543.00
2018-10-21T20:57:36.199Z,100546.00
2018-10-21T21:00:04.548Z,100550.00
2018-10-21T21:02:32.712Z,100554.00
2018-10-21T21:05:00.875Z,100558.00
2018-10-21T21:07:29.891Z,100556.00
2018-10-21T21:09:58.077Z,100561.00
2018-10-21T21:12:26.263Z,100558.00
2018-10-21T21:14:54.342Z,100568.00
2018-10-21T21:17:22.599Z,100567.00
2018-10-21T21:19:50.718Z,100570.00
2018-10-21T21:22:19.014Z,100576.00
2018-10-21T21:24:47.085Z,100572.00
2018-10-21T21:27:15.391Z,100577.00
2018-10-21T21:29:43.650Z,100574.00
2018-10-21T21:32:11.830Z,100578.00
2018-10-21T21:34:40.053Z,100582.00
2018-10-21T21:37:08.277Z,100579.00
2018-10-21T21:39:36.458Z,100579.00
2018-10-21T21:42:04.932Z,100581.00
2018-10-21T21:44:33.064Z,100574.00
2018-10-21T21:47:02.033Z,100578.00
2018-10-21T21:49:30.454Z,100581.00
2018-10-21T21:51:58.721Z,100575.00
2018-10-21T21:54:26.786Z,100571.00
2018-10-21T21:56:55.089Z,100573.00
2018-10-21T21:59:23.339Z,100569.00
2018-10-21T22:01:51.489Z,100565.00
2018-10-21T22:04:19.679Z,100564.00
2018-10-21T22:06:47.829Z,100563.00
2018-10-21T22:09:16.114Z,100562.00
2018-10-21T22:11:44.254Z,100561.00
2018-10-21T22:14:12.971Z,100561.00
2018-10-21T22:16:41.144Z,100556.00
2018-10-21T22:19:09.345Z,100561.00
2018-10-21T22:21:38.050Z,100561.00
2018-10-21T22:24:07.371Z,100563.00
2018-10-21T22:26:35.522Z,100566.00
2018-10-21T22:29:03.786Z,100563.00
2018-10-21T22:31:31.956Z,100559.00
2018-10-21T22:34:00.133Z,100555.00
2018-10-21T22:36:28.352Z,100560.00
2018-10-21T22:38:57.120Z,100556.00
2018-10-21T22:41:25.340Z,100560.00
2018-10-21T22:43:53.535Z,100555.00
2018-10-21T22:46:21.705Z,100540.00
2018-10-21T22:48:49.933Z,100554.00
2018-10-21T22:51:18.168Z,100556.00
2018-10-21T22:53:46.303Z,100556.00
2018-10-21T22:56:14.619Z,100559.00
2018-10-21T22:58:42.814Z,100557.00
2018-10-21T23:01:11.055Z,100561.00
2018-10-21T23:03:39.246Z,100568.00
2018-10-21T23:06:07.421Z,100567.00
2018-10-21T23:08:35.589Z,100563.00
2018-10-21T23:11:03.840Z,100560.00
2018-10-21T23:13:32.028Z,100558.00
2018-10-21T23:16:00.316Z,100560.00
2018-10-21T23:18:28.467Z,100562.00
2018-10-21T23:20:56.696Z,100563.00
2018-10-21T23:23:24.859Z,100560.00
2018-10-21T23:25:53.571Z,100558.00
2018-10-21T23:28:21.647Z,100556.00
2018-10-21T23:30:49.818Z,100556.00
2018-10-21T23:33:17.929Z,100553.00
2018-10-21T23:35:46.120Z,100561.00
2018-10-21T23:38:14.389Z,100557.00
2018-10-21T23:40:42.638Z,100550.00
2018-10-21T23:43:10.833Z,100553.00
2018-10-21T23:45:38.967Z,100556.00
2018-10-21T23:48:07.136Z,100559.00
2018-10-21T23:50:35.333Z,100553.00
2018-10-21T23:53:03.775Z,100557.00
2018-10-21T23:55:31.950Z,100560.00
2018-10-21T23:58:00.117Z,100558.00
